Detall de PIREP

Printer-friendly versionPDF version

[2013/02/19 11:11:00]
Flight IATA:CT0001
Pilot Number:042
Company ICAO:CAT
Aircraft Type:B738/F
PAX:83
Departing Airport: LEGE
Destination Airport: LEAL
Alternate Airport:LEMG
Online: VATSIM
Route:MAMUK B31 BCN B28 ASTRO
Flight Level:F330
No Slew and time accel
No pause
Crash detect
Detect pilot in Cockpit between each 30 and 45 minutes
11:11 Zero fuel Weight: 115600 Lbs, Fuel Weight: 46058 Lbs
11:11 VATSIM:LEGE 191100Z 20005KT 150V260 9999 SCT023 BKN058 12/05 Q1017
11:11 VATSIM:LEAL 191100Z 06014KT 9999 FEW015 SCT028 14/11 Q1014 NOSIG
11:11 VOICE CATALONIAN
11:19 Parking Brakes off
11:28 Take-off
11:28 Take off Weight: 160782 Lbs
11:28 Wind: 202º @ 010 Knots Heading: 196º
11:28 POS N41º 53´ 13´´ E002º 45´ 19´´
11:28 Gear Up: 164 Knots
11:28 Flaps:5 at 164 Knots
11:28 Flaps:4 at 161 Knots
11:29 Flaps:3 at 156 Knots
11:29 Flaps:2 at 168 Knots
11:29 Flaps:1 at 181 Knots
11:30 Flaps:0 at 199 Knots
11:43 Wind:310º@055 Knots Heading: 234º Ground Speed: 445 Knots Altitude 27880 ft
11:47 TOC
11:47 Fuel Weight: 41109 Lb
11:58 Wind:299º@057 Knots Heading: 233º Ground Speed: 435 Knots Altitude 33021 ft
12:02 TOD
12:02 Fuel Weight: 39642 Lb
12:13 Wind:301º@019 Knots Heading: 145º Ground Speed: 317 Knots Altitude 10298 ft
12:16 Flaps:1 at 211 Knots
12:16 Flaps:2 at 212 Knots
12:19 Flaps:3 at 188 Knots
12:19 Flaps:4 at 167 Knots
12:20 Gear Down: 166 Knots
12:20 Flaps:5 at 166 Knots
12:20 Flaps:6 at 164 Knots
12:20 Flaps:7 at 157 Knots
12:21 Flaps:8 at 151 Knots
12:24 TouchDown:Rate -302 ft/min Speed: 126 Knots
12:24 VATSIM:LEAL 191200Z 05015KT 020V080 9999 FEW014 14/10 Q1013 NOSIG
12:24 Land
12:24 Wind:193º@005 Knots
12:24 Heading: 104º
12:24 Flight Duration: 00:56
12:24 Landing Weight: 154104 Lbs
12:24 POS N38º 16´ 5481 Knots
11:30 Flaps:0 at 199 Knots
11:43 Wind:310º@055 Knots Heading: 234º Ground Speed: 445 Knots Altitude 27880 ft
11:47 TOC
11:47 Fuel Weight: 41109 Lb
11:58 Wind:299º@057 Knots Heading: 233º Ground Speed: 435 Knots Altitude 33021 ft
12:02 TOD
12:02 Fuel Weight: 39642 Lb
12:13 Wind:301º@019 Knots Heading: 145º Ground Speed: 317 Knots Altitude 10298 ft
12:16 Flaps:1 at 211 Knots
12:16 Flaps:2 at 212 Knots
12:19 Flaps:3 at 188 Knots
12:19 Flaps:4 at 167 Knots
12:20 Gear Down: 166 Knots
12:20 Flaps:5 at 166 Knots
12:20 Flaps:6 at 164 Knots
12:20 Flaps:7 at 157 Knots
12:21 Flaps:8 at 151 Knots
12:24 TouchDown:Rate -302 ft/min Speed: 126 Knots
12:24 VATSIM:LEAL 191200Z 05015KT 020V080 9999 FEW014 14/10 Q1013 NOSIG
12:24 Land
12:24 Wind:193º@005 Knots
12:24 Heading: 104º
12:24 Flight Duration: 00:56
12:24 Landing Weight: 154104 Lbs
12:24 POS N38º 16´ 5481 Knots
11:30 Flaps:0 at 199 Knots
11:43 Wind:310º@055 Knots Heading: 234º Ground Speed: 445 Knots Altitude 27880 ft
11:47 TOC
11:47 Fuel Weight: 41109 Lb
11:58 Wind:299º@057 Knots Heading: 233º Ground Speed: 435 Knots Altitude 33021 ft
12:02 TOD
12:02 Fuel Weight: 39642 Lb
12:13 Wind:301º@019 Knots Heading: 145º Ground Speed: 317 Knots Altitude 10298 ft
12:16 Flaps:1 at 211 Knots
12:16 Flaps:2 at 212 Knots
12:19 Flaps:3 at 188 Knots
12:19 Flaps:4 at 167 Knots
12:20 Gear Down: 166 Knots
12:20 Flaps:5 at 166 Knots
12:20 Flaps:6 at 164 Knots
12:20 Flaps:7 at 157 Knots
12:21 Flaps:8 at 151 Knots
12:24 TouchDown:Rate -302 ft/min Speed: 126 Knots
12:24 VATSIM:LEAL 191200Z 05015KT 020V080 9999 FEW014 14/10 Q1013 NOSIG
12:24 Land
12:24 Wind:193º@005 Knots
12:24 Heading: 104º
12:24 Flight Duration: 00:56
12:24 Landing Weight: 154104 Lbs
12:24 POS N38º 16´ 54´´ W000º 33´ 22´´
12:28 Parking brakes on
12:28 Block to Block Duration: 01:09
12:28 Final Fuel: 38090 Lbls
12:28 Spent Fuel: 7967 Lbls
12:28 Flight Length: 335 NM
12:28 TOD Land Length: 107 NM

Exportar CSV

Powered by Drupal - Modified by Danger4k